sensor_id;sensor_type;location;lat;lon;timestamp;pressure;altitude;pressure_sealevel;temperature;humidity
5872;BME280;2962;51.312;7.378;2024-03-25T00:00:32;96487.75;;;2.59;100.00
5872;BME280;2962;51.312;7.378;2024-03-25T00:02:59;96484.97;;;2.55;100.00
5872;BME280;2962;51.312;7.378;2024-03-25T00:05:24;96486.31;;;2.49;100.00
5872;BME280;2962;51.312;7.378;2024-03-25T00:07:51;96492.47;;;2.50;100.00
5872;BME280;2962;51.312;7.378;2024-03-25T00:10:17;96484.84;;;2.52;100.00
5872;BME280;2962;51.312;7.378;2024-03-25T00:12:42;96481.28;;;2.48;100.00
5872;BME280;2962;51.312;7.378;2024-03-25T00:15:09;96499.44;;;2.38;100.00
5872;BME280;2962;51.312;7.378;2024-03-25T00:17:34;96492.16;;;2.39;100.00
5872;BME280;2962;51.312;7.378;2024-03-25T00:19:59;96495.19;;;2.37;100.00
5872;BME280;2962;51.312;7.378;2024-03-25T00:22:25;96498.44;;;2.43;100.00
5872;BME280;2962;51.312;7.378;2024-03-25T00:24:51;96502.16;;;2.38;100.00
5872;BME280;2962;51.312;7.378;2024-03-25T00:27:17;96506.59;;;2.34;100.00
5872;BME280;2962;51.312;7.378;2024-03-25T00:29:43;96492.59;;;2.41;100.00
5872;BME280;2962;51.312;7.378;2024-03-25T00:32:09;96492.50;;;2.37;100.00
5872;BME280;2962;51.312;7.378;2024-03-25T00:34:35;96487.13;;;2.37;100.00
5872;BME280;2962;51.312;7.378;2024-03-25T00:37:01;96494.41;;;2.37;100.00
5872;BME280;2962;51.312;7.378;2024-03-25T00:39:27;96497.66;;;2.30;100.00
5872;BME280;2962;51.312;7.378;2024-03-25T00:41:53;96492.06;;;2.35;100.00
5872;BME280;2962;51.312;7.378;2024-03-25T00:44:19;96489.03;;;2.25;100.00
5872;BME280;2962;51.312;7.378;2024-03-25T00:46:44;96501.69;;;2.24;100.00
5872;BME280;2962;51.312;7.378;2024-03-25T00:49:10;96501.03;;;2.27;100.00
5872;BME280;2962;51.312;7.378;2024-03-25T00:51:36;96495.88;;;2.22;100.00
5872;BME280;2962;51.312;7.378;2024-03-25T00:54:02;96485.22;;;2.26;100.00
5872;BME280;2962;51.312;7.378;2024-03-25T00:56:28;96489.81;;;2.25;100.00
5872;BME280;2962;51.312;7.378;2024-03-25T00:58:53;96495.66;;;2.27;100.00
5872;BME280;2962;51.312;7.378;2024-03-25T01:01:19;96485.13;;;2.22;100.00
5872;BME280;2962;51.312;7.378;2024-03-25T01:03:44;96488.47;;;2.19;100.00
5872;BME280;2962;51.312;7.378;2024-03-25T01:06:10;96510.88;;;2.23;100.00
5872;BME280;2962;51.312;7.378;2024-03-25T01:08:35;96479.41;;;2.11;100.00
5872;BME280;2962;51.312;7.378;2024-03-25T01:11:00;96494.97;;;2.18;100.00
5872;BME280;2962;51.312;7.378;2024-03-25T01:13:26;96490.38;;;2.18;100.00
5872;BME280;2962;51.312;7.378;2024-03-25T01:15:51;96505.50;;;2.23;100.00
5872;BME280;2962;51.312;7.378;2024-03-25T01:18:17;96500.47;;;2.22;100.00
5872;BME280;2962;51.312;7.378;2024-03-25T01:20:42;96494.44;;;2.12;100.00
5872;BME280;2962;51.312;7.378;2024-03-25T01:23:08;96499.22;;;2.19;100.00
5872;BME280;2962;51.312;7.378;2024-03-25T01:25:33;96483.31;;;2.14;100.00
5872;BME280;2962;51.312;7.378;2024-03-25T01:27:58;96491.84;;;2.16;100.00
5872;BME280;2962;51.312;7.378;2024-03-25T01:30:24;96504.59;;;2.19;100.00
5872;BME280;2962;51.312;7.378;2024-03-25T01:32:49;96495.19;;;2.13;100.00
5872;BME280;2962;51.312;7.378;2024-03-25T01:35:15;96499.91;;;2.16;100.00
5872;BME280;2962;51.312;7.378;2024-03-25T01:37:41;96491.75;;;2.12;100.00
5872;BME280;2962;51.312;7.378;2024-03-25T01:40:08;96487.69;;;2.18;100.00
5872;BME280;2962;51.312;7.378;2024-03-25T01:42:36;96494.31;;;2.21;100.00
5872;BME280;2962;51.312;7.378;2024-03-25T01:45:01;96497.78;;;2.22;100.00
5872;BME280;2962;51.312;7.378;2024-03-25T01:47:28;96504.59;;;2.19;100.00
5872;BME280;2962;51.312;7.378;2024-03-25T01:49:54;96513.13;;;2.21;100.00
5872;BME280;2962;51.312;7.378;2024-03-25T01:52:22;96495.44;;;2.20;100.00
5872;BME280;2962;51.312;7.378;2024-03-25T01:54:48;96499.44;;;2.14;100.00
5872;BME280;2962;51.312;7.378;2024-03-25T01:57:15;96494.19;;;2.17;100.00
5872;BME280;2962;51.312;7.378;2024-03-25T01:59:41;96503.91;;;2.22;100.00
5872;BME280;2962;51.312;7.378;2024-03-25T02:02:07;96503.81;;;2.18;100.00
5872;BME280;2962;51.312;7.378;2024-03-25T02:04:32;96501.59;;;2.20;100.00
5872;BME280;2962;51.312;7.378;2024-03-25T02:06:57;96502.25;;;2.17;100.00
5872;BME280;2962;51.312;7.378;2024-03-25T02:09:24;96503.25;;;2.25;100.00
5872;BME280;2962;51.312;7.378;2024-03-25T02:11:52;96508.75;;;2.16;100.00
5872;BME280;2962;51.312;7.378;2024-03-25T02:14:18;96499.56;;;2.17;100.00
5872;BME280;2962;51.312;7.378;2024-03-25T02:16:44;96493.84;;;2.19;100.00
5872;BME280;2962;51.312;7.378;2024-03-25T02:19:11;96507.06;;;2.24;100.00
5872;BME280;2962;51.312;7.378;2024-03-25T02:21:39;96500.22;;;2.27;100.00
5872;BME280;2962;51.312;7.378;2024-03-25T02:24:08;96499.00;;;2.24;100.00
5872;BME280;2962;51.312;7.378;2024-03-25T02:26:34;96500.56;;;2.25;100.00
5872;BME280;2962;51.312;7.378;2024-03-25T02:28:59;96506.84;;;2.29;100.00
5872;BME280;2962;51.312;7.378;2024-03-25T02:31:25;96515.78;;;2.33;100.00
5872;BME280;2962;51.312;7.378;2024-03-25T02:33:50;96501.03;;;2.27;100.00
5872;BME280;2962;51.312;7.378;2024-03-25T02:36:15;96500.78;;;2.32;100.00
5872;BME280;2962;51.312;7.378;2024-03-25T02:38:40;96496.97;;;2.33;100.00
5872;BME280;2962;51.312;7.378;2024-03-25T02:41:06;96501.44;;;2.41;100.00
5872;BME280;2962;51.312;7.378;2024-03-25T02:43:31;96492.06;;;2.35;100.00
5872;BME280;2962;51.312;7.378;2024-03-25T02:45:57;96490.25;;;2.39;100.00
5872;BME280;2962;51.312;7.378;2024-03-25T02:48:22;96496.75;;;2.38;100.00
5872;BME280;2962;51.312;7.378;2024-03-25T02:50:47;96497.44;;;2.35;100.00
5872;BME280;2962;51.312;7.378;2024-03-25T02:53:13;96505.50;;;2.35;100.00
5872;BME280;2962;51.312;7.378;2024-03-25T02:55:38;96495.84;;;2.34;100.00
5872;BME280;2962;51.312;7.378;2024-03-25T02:58:03;96514.44;;;2.39;100.00
5872;BME280;2962;51.312;7.378;2024-03-25T03:00:29;96512.78;;;2.35;100.00
5872;BME280;2962;51.312;7.378;2024-03-25T03:02:54;96507.97;;;2.28;100.00
5872;BME280;2962;51.312;7.378;2024-03-25T03:05:19;96519.59;;;2.32;100.00
5872;BME280;2962;51.312;7.378;2024-03-25T03:07:44;96517.16;;;2.27;100.00
5872;BME280;2962;51.312;7.378;2024-03-25T03:10:10;96525.22;;;2.27;100.00
5872;BME280;2962;51.312;7.378;2024-03-25T03:12:35;96522.06;;;2.25;100.00
5872;BME280;2962;51.312;7.378;2024-03-25T03:15:00;96519.38;;;2.25;100.00
5872;BME280;2962;51.312;7.378;2024-03-25T03:17:26;96528.56;;;2.24;100.00
5872;BME280;2962;51.312;7.378;2024-03-25T03:19:51;96528.69;;;2.28;100.00
5872;BME280;2962;51.312;7.378;2024-03-25T03:22:16;96516.34;;;2.27;100.00
5872;BME280;2962;51.312;7.378;2024-03-25T03:24:41;96517.81;;;2.24;100.00
5872;BME280;2962;51.312;7.378;2024-03-25T03:27:07;96524.75;;;2.25;100.00
5872;BME280;2962;51.312;7.378;2024-03-25T03:29:32;96518.84;;;2.19;100.00
5872;BME280;2962;51.312;7.378;2024-03-25T03:31:58;96508.19;;;2.11;100.00
5872;BME280;2962;51.312;7.378;2024-03-25T03:34:23;96519.16;;;2.18;100.00
5872;BME280;2962;51.312;7.378;2024-03-25T03:36:48;96511.75;;;2.15;100.00
5872;BME280;2962;51.312;7.378;2024-03-25T03:39:15;96504.81;;;2.14;100.00
5872;BME280;2962;51.312;7.378;2024-03-25T03:41:40;96514.91;;;2.17;100.00
5872;BME280;2962;51.312;7.378;2024-03-25T03:44:05;96517.72;;;2.20;100.00
5872;BME280;2962;51.312;7.378;2024-03-25T03:46:31;96508.41;;;2.18;100.00
5872;BME280;2962;51.312;7.378;2024-03-25T03:48:56;96501.25;;;2.10;100.00
5872;BME280;2962;51.312;7.378;2024-03-25T03:51:21;96521.94;;;2.22;100.00
5872;BME280;2962;51.312;7.378;2024-03-25T03:53:47;96514.13;;;2.16;100.00
5872;BME280;2962;51.312;7.378;2024-03-25T03:56:12;96503.91;;;2.22;100.00
5872;BME280;2962;51.312;7.378;2024-03-25T03:58:37;96508.09;;;2.19;100.00
5872;BME280;2962;51.312;7.378;2024-03-25T04:01:03;96504.50;;;2.15;100.00
5872;BME280;2962;51.312;7.378;2024-03-25T04:03:29;96509.53;;;2.17;100.00
5872;BME280;2962;51.312;7.378;2024-03-25T04:05:54;96505.28;;;2.16;100.00
5872;BME280;2962;51.312;7.378;2024-03-25T04:08:21;96502.91;;;2.14;100.00
5872;BME280;2962;51.312;7.378;2024-03-25T04:10:46;96492.28;;;2.06;100.00
5872;BME280;2962;51.312;7.378;2024-03-25T04:13:11;96526.56;;;2.21;100.00
5872;BME280;2962;51.312;7.378;2024-03-25T04:15:42;96515.81;;;2.09;100.00
5872;BME280;2962;51.312;7.378;2024-03-25T04:18:07;96517.13;;;2.15;100.00
5872;BME280;2962;51.312;7.378;2024-03-25T04:20:37;96514.56;;;2.18;100.00
5872;BME280;2962;51.312;7.378;2024-03-25T04:23:03;96508.63;;;2.13;100.00
5872;BME280;2962;51.312;7.378;2024-03-25T04:25:29;96519.81;;;2.15;100.00
5872;BME280;2962;51.312;7.378;2024-03-25T04:27:54;96508.19;;;1.99;100.00
5872;BME280;2962;51.312;7.378;2024-03-25T04:30:19;96505.16;;;2.12;100.00
5872;BME280;2962;51.312;7.378;2024-03-25T04:32:45;96508.28;;;2.14;100.00
5872;BME280;2962;51.312;7.378;2024-03-25T04:35:10;96511.22;;;2.09;100.00
5872;BME280;2962;51.312;7.378;2024-03-25T04:37:35;96500.34;;;2.06;100.00
5872;BME280;2962;51.312;7.378;2024-03-25T04:40:02;96505.72;;;2.06;100.00
5872;BME280;2962;51.312;7.378;2024-03-25T04:42:28;96507.94;;;2.04;100.00
5872;BME280;2962;51.312;7.378;2024-03-25T04:44:53;96510.88;;;2.11;100.00
5872;BME280;2962;51.312;7.378;2024-03-25T04:47:19;96522.06;;;2.25;100.00
5872;BME280;2962;51.312;7.378;2024-03-25T04:49:45;96520.03;;;2.22;100.00
5872;BME280;2962;51.312;7.378;2024-03-25T04:52:11;96498.13;;;2.08;100.00
5872;BME280;2962;51.312;7.378;2024-03-25T04:54:42;96510.66;;;2.16;100.00
5872;BME280;2962;51.312;7.378;2024-03-25T04:57:07;96521.41;;;2.16;100.00
5872;BME280;2962;51.312;7.378;2024-03-25T04:59:32;96527.69;;;2.20;100.00
5872;BME280;2962;51.312;7.378;2024-03-25T05:01:59;96526.91;;;2.19;100.00
5872;BME280;2962;51.312;7.378;2024-03-25T05:04:24;96520.63;;;2.15;100.00
5872;BME280;2962;51.312;7.378;2024-03-25T05:06:49;96523.88;;;2.21;100.00
5872;BME280;2962;51.312;7.378;2024-03-25T05:09:15;96518.38;;;2.17;100.00
5872;BME280;2962;51.312;7.378;2024-03-25T05:11:41;96522.72;;;2.22;100.00
5872;BME280;2962;51.312;7.378;2024-03-25T05:14:06;96532.81;;;2.25;100.00
5872;BME280;2962;51.312;7.378;2024-03-25T05:16:32;96529.59;;;2.19;100.00
5872;BME280;2962;51.312;7.378;2024-03-25T05:18:57;96538.84;;;2.22;100.00
5872;BME280;2962;51.312;7.378;2024-03-25T05:21:23;96534.50;;;2.17;100.00
5872;BME280;2962;51.312;7.378;2024-03-25T05:23:48;96530.56;;;2.15;100.00
5872;BME280;2962;51.312;7.378;2024-03-25T05:26:13;96532.03;;;2.25;100.00
5872;BME280;2962;51.312;7.378;2024-03-25T05:28:39;96535.38;;;2.22;100.00
5872;BME280;2962;51.312;7.378;2024-03-25T05:31:10;96535.16;;;2.14;100.00
5872;BME280;2962;51.312;7.378;2024-03-25T05:33:36;96544.00;;;2.15;100.00
5872;BME280;2962;51.312;7.378;2024-03-25T05:36:02;96541.00;;;2.16;100.00
5872;BME280;2962;51.312;7.378;2024-03-25T05:38:27;96535.16;;;2.14;100.00
5872;BME280;2962;51.312;7.378;2024-03-25T05:40:54;96529.78;;;2.02;100.00
5872;BME280;2962;51.312;7.378;2024-03-25T05:43:20;96547.28;;;2.20;100.00
5872;BME280;2962;51.312;7.378;2024-03-25T05:45:55;96540.88;;;2.13;100.00
5872;BME280;2962;51.312;7.378;2024-03-25T05:48:21;96544.16;;;2.31;100.00
5872;BME280;2962;51.312;7.378;2024-03-25T05:51:09;96548.72;;;2.30;100.00
5872;BME280;2962;51.312;7.378;2024-03-25T05:53:34;96552.53;;;2.29;100.00
5872;BME280;2962;51.312;7.378;2024-03-25T05:56:00;96547.94;;;2.30;100.00
5872;BME280;2962;51.312;7.378;2024-03-25T05:58:26;96542.13;;;2.15;100.00
5872;BME280;2962;51.312;7.378;2024-03-25T06:00:52;96545.59;;;2.28;100.00
5872;BME280;2962;51.312;7.378;2024-03-25T06:03:18;96551.84;;;2.32;100.00
5872;BME280;2962;51.312;7.378;2024-03-25T06:05:43;96550.72;;;2.33;100.00
5872;BME280;2962;51.312;7.378;2024-03-25T06:08:09;96547.63;;;2.31;100.00
5872;BME280;2962;51.312;7.378;2024-03-25T06:10:43;96538.84;;;2.34;100.00
5872;BME280;2962;51.312;7.378;2024-03-25T06:13:08;96552.63;;;2.45;100.00
5872;BME280;2962;51.312;7.378;2024-03-25T06:15:34;96557.69;;;2.47;100.00
5872;BME280;2962;51.312;7.378;2024-03-25T06:17:59;96555.31;;;2.45;100.00
5872;BME280;2962;51.312;7.378;2024-03-25T06:20:24;96562.72;;;2.36;100.00
5872;BME280;2962;51.312;7.378;2024-03-25T06:22:49;96558.78;;;2.45;100.00
5872;BME280;2962;51.312;7.378;2024-03-25T06:25:16;96562.19;;;2.42;100.00
5872;BME280;2962;51.312;7.378;2024-03-25T06:27:41;96554.22;;;2.58;100.00
5872;BME280;2962;51.312;7.378;2024-03-25T06:30:07;96550.50;;;2.63;100.00
5872;BME280;2962;51.312;7.378;2024-03-25T06:32:51;96551.59;;;2.74;100.00
5872;BME280;2962;51.312;7.378;2024-03-25T06:35:35;96562.81;;;2.64;100.00
5872;BME280;2962;51.312;7.378;2024-03-25T06:38:01;96539.06;;;2.66;100.00
5872;BME280;2962;51.312;7.378;2024-03-25T06:40:26;96549.25;;;2.73;100.00
5872;BME280;2962;51.312;7.378;2024-03-25T06:42:51;96548.91;;;2.74;100.00
5872;BME280;2962;51.312;7.378;2024-03-25T06:45:16;96548.34;;;2.68;100.00
5872;BME280;2962;51.312;7.378;2024-03-25T06:47:42;96554.75;;;2.64;100.00
5872;BME280;2962;51.312;7.378;2024-03-25T06:50:08;96554.75;;;2.52;100.00
5872;BME280;2962;51.312;7.378;2024-03-25T06:52:33;96547.16;;;2.54;100.00
5872;BME280;2962;51.312;7.378;2024-03-25T06:54:58;96552.41;;;2.62;100.00
5872;BME280;2962;51.312;7.378;2024-03-25T06:57:24;96561.91;;;2.72;100.00
5872;BME280;2962;51.312;7.378;2024-03-25T06:59:49;96545.78;;;2.60;100.00
5872;BME280;2962;51.312;7.378;2024-03-25T07:02:14;96532.31;;;2.72;100.00
5872;BME280;2962;51.312;7.378;2024-03-25T07:04:40;96531.53;;;2.72;100.00
5872;BME280;2962;51.312;7.378;2024-03-25T07:07:05;96540.28;;;2.81;100.00
5872;BME280;2962;51.312;7.378;2024-03-25T07:09:30;96556.91;;;2.99;100.00
5872;BME280;2962;51.312;7.378;2024-03-25T07:11:55;96545.13;;;3.03;100.00
5872;BME280;2962;51.312;7.378;2024-03-25T07:14:21;96552.50;;;3.18;100.00
5872;BME280;2962;51.312;7.378;2024-03-25T07:16:46;96550.69;;;3.23;100.00
5872;BME280;2962;51.312;7.378;2024-03-25T07:19:11;96556.56;;;3.40;100.00
5872;BME280;2962;51.312;7.378;2024-03-25T07:21:36;96557.84;;;3.59;100.00
5872;BME280;2962;51.312;7.378;2024-03-25T07:24:02;96559.44;;;3.91;100.00
5872;BME280;2962;51.312;7.378;2024-03-25T07:26:27;96567.03;;;4.18;100.00
5872;BME280;2962;51.312;7.378;2024-03-25T07:28:53;96569.19;;;4.44;100.00
5872;BME280;2962;51.312;7.378;2024-03-25T07:31:18;96566.50;;;4.28;100.00
5872;BME280;2962;51.312;7.378;2024-03-25T07:33:43;96563.59;;;4.68;100.00
5872;BME280;2962;51.312;7.378;2024-03-25T07:36:08;96555.53;;;4.52;100.00
5872;BME280;2962;51.312;7.378;2024-03-25T07:38:34;96554.78;;;4.71;100.00
5872;BME280;2962;51.312;7.378;2024-03-25T07:41:05;96553.72;;;4.40;100.00
5872;BME280;2962;51.312;7.378;2024-03-25T07:43:30;96563.97;;;4.51;100.00
5872;BME280;2962;51.312;7.378;2024-03-25T07:45:56;96559.66;;;4.81;100.00
5872;BME280;2962;51.312;7.378;2024-03-25T07:48:21;96553.97;;;4.86;100.00
5872;BME280;2962;51.312;7.378;2024-03-25T07:50:46;96563.16;;;5.01;100.00
5872;BME280;2962;51.312;7.378;2024-03-25T07:53:11;96559.91;;;4.76;100.00
5872;BME280;2962;51.312;7.378;2024-03-25T07:55:37;96560.59;;;4.89;100.00
5872;BME280;2962;51.312;7.378;2024-03-25T07:58:03;96554.41;;;4.88;100.00
5872;BME280;2962;51.312;7.378;2024-03-25T08:00:28;96544.41;;;4.89;100.00
5872;BME280;2962;51.312;7.378;2024-03-25T08:02:56;96550.50;;;4.86;100.00
5872;BME280;2962;51.312;7.378;2024-03-25T08:05:22;96556.09;;;4.77;100.00
5872;BME280;2962;51.312;7.378;2024-03-25T08:07:47;96558.06;;;4.80;100.00
5872;BME280;2962;51.312;7.378;2024-03-25T08:10:13;96558.88;;;4.65;100.00
5872;BME280;2962;51.312;7.378;2024-03-25T08:12:38;96567.16;;;4.72;100.00
5872;BME280;2962;51.312;7.378;2024-03-25T08:15:04;96566.94;;;4.61;100.00
5872;BME280;2962;51.312;7.378;2024-03-25T08:17:29;96548.22;;;4.53;100.00
5872;BME280;2962;51.312;7.378;2024-03-25T08:19:55;96544.72;;;4.52;100.00
5872;BME280;2962;51.312;7.378;2024-03-25T08:22:20;96562.47;;;4.69;100.00
5872;BME280;2962;51.312;7.378;2024-03-25T08:24:45;96560.16;;;4.87;100.00
5872;BME280;2962;51.312;7.378;2024-03-25T08:27:10;96556.66;;;5.22;100.00
5872;BME280;2962;51.312;7.378;2024-03-25T08:29:36;96555.44;;;5.19;100.00
5872;BME280;2962;51.312;7.378;2024-03-25T08:32:01;96560.94;;;5.23;100.00
5872;BME280;2962;51.312;7.378;2024-03-25T08:34:26;96554.00;;;5.06;100.00
5872;BME280;2962;51.312;7.378;2024-03-25T08:36:52;96556.41;;;4.92;100.00
5872;BME280;2962;51.312;7.378;2024-03-25T08:39:17;96552.47;;;5.24;100.00
5872;BME280;2962;51.312;7.378;2024-03-25T08:41:42;96558.78;;;5.32;100.00
5872;BME280;2962;51.312;7.378;2024-03-25T08:44:08;96540.22;;;5.30;100.00
5872;BME280;2962;51.312;7.378;2024-03-25T08:46:33;96536.19;;;5.82;100.00
5872;BME280;2962;51.312;7.378;2024-03-25T08:48:58;96539.13;;;5.93;100.00
5872;BME280;2962;51.312;7.378;2024-03-25T08:51:24;96545.38;;;5.97;100.00
5872;BME280;2962;51.312;7.378;2024-03-25T08:53:49;96553.72;;;5.69;100.00
5872;BME280;2962;51.312;7.378;2024-03-25T08:56:15;96551.16;;;5.57;100.00
5872;BME280;2962;51.312;7.378;2024-03-25T08:58:40;96544.72;;;6.04;100.00
5872;BME280;2962;51.312;7.378;2024-03-25T09:01:05;96541.19;;;6.26;100.00
5872;BME280;2962;51.312;7.378;2024-03-25T09:03:31;96551.53;;;6.44;100.00
5872;BME280;2962;51.312;7.378;2024-03-25T09:05:57;96548.84;;;6.44;100.00
5872;BME280;2962;51.312;7.378;2024-03-25T09:08:22;96552.97;;;6.38;100.00
5872;BME280;2962;51.312;7.378;2024-03-25T09:10:47;96527.28;;;6.01;100.00
5872;BME280;2962;51.312;7.378;2024-03-25T09:13:31;96540.13;;;6.31;100.00
5872;BME280;2962;51.312;7.378;2024-03-25T09:15:56;96543.44;;;6.70;100.00
5872;BME280;2962;51.312;7.378;2024-03-25T09:18:21;96547.31;;;6.99;100.00
5872;BME280;2962;51.312;7.378;2024-03-25T09:20:47;96547.88;;;7.12;100.00
5872;BME280;2962;51.312;7.378;2024-03-25T09:23:12;96554.94;;;7.50;100.00
5872;BME280;2962;51.312;7.378;2024-03-25T09:25:38;96557.50;;;7.40;100.00
5872;BME280;2962;51.312;7.378;2024-03-25T09:28:03;96546.53;;;7.29;100.00
5872;BME280;2962;51.312;7.378;2024-03-25T09:30:29;96560.28;;;6.87;100.00
5872;BME280;2962;51.312;7.378;2024-03-25T09:32:54;96546.66;;;6.79;100.00
5872;BME280;2962;51.312;7.378;2024-03-25T09:35:19;96545.31;;;6.93;100.00
5872;BME280;2962;51.312;7.378;2024-03-25T09:37:45;96545.31;;;6.66;100.00
5872;BME280;2962;51.312;7.378;2024-03-25T09:40:11;96536.75;;;7.21;100.00
5872;BME280;2962;51.312;7.378;2024-03-25T09:42:49;96548.78;;;7.57;100.00
5872;BME280;2962;51.312;7.378;2024-03-25T09:45:18;96550.31;;;7.88;100.00
5872;BME280;2962;51.312;7.378;2024-03-25T09:47:47;96542.59;;;7.56;100.00
5872;BME280;2962;51.312;7.378;2024-03-25T09:50:14;96546.34;;;7.45;100.00
5872;BME280;2962;51.312;7.378;2024-03-25T09:52:45;96530.31;;;7.32;100.00
5872;BME280;2962;51.312;7.378;2024-03-25T09:55:10;96534.97;;;7.02;100.00
5872;BME280;2962;51.312;7.378;2024-03-25T09:57:35;96532.38;;;7.76;100.00
5872;BME280;2962;51.312;7.378;2024-03-25T10:00:02;96541.25;;;7.40;100.00
5872;BME280;2962;51.312;7.378;2024-03-25T10:02:29;96536.78;;;7.54;100.00
5872;BME280;2962;51.312;7.378;2024-03-25T10:04:55;96542.28;;;7.62;100.00
5872;BME280;2962;51.312;7.378;2024-03-25T10:07:22;96532.53;;;7.57;100.00
5872;BME280;2962;51.312;7.378;2024-03-25T10:09:49;96529.88;;;7.61;100.00
5872;BME280;2962;51.312;7.378;2024-03-25T10:12:15;96528.91;;;7.79;100.00
5872;BME280;2962;51.312;7.378;2024-03-25T10:14:40;96514.63;;;7.86;100.00
5872;BME280;2962;51.312;7.378;2024-03-25T10:17:06;96520.94;;;7.97;100.00
5872;BME280;2962;51.312;7.378;2024-03-25T10:19:32;96513.06;;;8.29;100.00
5872;BME280;2962;51.312;7.378;2024-03-25T10:22:05;96515.94;;;8.03;100.00
5872;BME280;2962;51.312;7.378;2024-03-25T10:24:42;96517.44;;;8.38;100.00
5872;BME280;2962;51.312;7.378;2024-03-25T10:27:21;96509.53;;;8.22;100.00
5872;BME280;2962;51.312;7.378;2024-03-25T10:29:53;96515.25;;;7.69;100.00
5872;BME280;2962;51.312;7.378;2024-03-25T10:32:20;96514.31;;;7.54;100.00
5872;BME280;2962;51.312;7.378;2024-03-25T10:34:45;96511.34;;;7.66;100.00
5872;BME280;2962;51.312;7.378;2024-03-25T10:37:11;96515.97;;;7.62;100.00
5872;BME280;2962;51.312;7.378;2024-03-25T10:39:47;96518.41;;;7.74;100.00
5872;BME280;2962;51.312;7.378;2024-03-25T10:42:14;96514.03;;;8.07;100.00
5872;BME280;2962;51.312;7.378;2024-03-25T10:44:40;96513.00;;;8.22;100.00
5872;BME280;2962;51.312;7.378;2024-03-25T10:47:06;96507.91;;;7.69;100.00
5872;BME280;2962;51.312;7.378;2024-03-25T10:49:38;96509.63;;;7.92;100.00
5872;BME280;2962;51.312;7.378;2024-03-25T10:52:05;96508.34;;;7.75;100.00
5872;BME280;2962;51.312;7.378;2024-03-25T10:54:31;96504.34;;;7.28;100.00
5872;BME280;2962;51.312;7.378;2024-03-25T10:56:58;96495.38;;;7.57;100.00
5872;BME280;2962;51.312;7.378;2024-03-25T10:59:24;96488.97;;;8.21;100.00
5872;BME280;2962;51.312;7.378;2024-03-25T11:01:51;96489.25;;;8.56;100.00
5872;BME280;2962;51.312;7.378;2024-03-25T11:04:16;96475.66;;;9.29;100.00
5872;BME280;2962;51.312;7.378;2024-03-25T11:06:42;96482.44;;;10.07;100.00
5872;BME280;2962;51.312;7.378;2024-03-25T11:09:07;96466.88;;;10.25;100.00
5872;BME280;2962;51.312;7.378;2024-03-25T11:11:33;96473.06;;;9.87;100.00
5872;BME280;2962;51.312;7.378;2024-03-25T11:14:02;96468.78;;;9.86;100.00
5872;BME280;2962;51.312;7.378;2024-03-25T11:16:33;96478.53;;;10.69;100.00
5872;BME280;2962;51.312;7.378;2024-03-25T11:19:04;96466.88;;;10.11;100.00
5872;BME280;2962;51.312;7.378;2024-03-25T11:21:31;96466.47;;;10.09;100.00
5872;BME280;2962;51.312;7.378;2024-03-25T11:24:06;96476.53;;;9.69;100.00
5872;BME280;2962;51.312;7.378;2024-03-25T11:26:31;96468.00;;;9.74;100.00
5872;BME280;2962;51.312;7.378;2024-03-25T11:29:00;96457.06;;;9.39;100.00
5872;BME280;2962;51.312;7.378;2024-03-25T11:31:26;96454.06;;;8.71;100.00
5872;BME280;2962;51.312;7.378;2024-03-25T11:33:51;96452.75;;;9.31;100.00
5872;BME280;2962;51.312;7.378;2024-03-25T11:36:16;96446.63;;;9.87;100.00
5872;BME280;2962;51.312;7.378;2024-03-25T11:38:46;96433.34;;;10.79;100.00
5872;BME280;2962;51.312;7.378;2024-03-25T11:41:11;96440.22;;;11.82;100.00
5872;BME280;2962;51.312;7.378;2024-03-25T11:43:37;96432.28;;;11.42;100.00
5872;BME280;2962;51.312;7.378;2024-03-25T11:46:02;96419.22;;;11.05;100.00
5872;BME280;2962;51.312;7.378;2024-03-25T11:48:29;96423.78;;;11.30;100.00
5872;BME280;2962;51.312;7.378;2024-03-25T11:50:54;96420.69;;;11.28;100.00
5872;BME280;2962;51.312;7.378;2024-03-25T11:53:19;96414.06;;;11.25;100.00
5872;BME280;2962;51.312;7.378;2024-03-25T11:55:48;96430.94;;;10.95;100.00
5872;BME280;2962;51.312;7.378;2024-03-25T11:58:14;96428.69;;;11.56;100.00
5872;BME280;2962;51.312;7.378;2024-03-25T12:00:47;96420.09;;;12.17;100.00
5872;BME280;2962;51.312;7.378;2024-03-25T12:03:15;96421.81;;;11.96;100.00
5872;BME280;2962;51.312;7.378;2024-03-25T12:05:44;96420.22;;;11.99;100.00
5872;BME280;2962;51.312;7.378;2024-03-25T12:08:10;96419.78;;;12.08;93.62
5872;BME280;2962;51.312;7.378;2024-03-25T12:10:37;96407.69;;;12.09;100.00
5872;BME280;2962;51.312;7.378;2024-03-25T12:13:21;96402.97;;;12.88;100.00
5872;BME280;2962;51.312;7.378;2024-03-25T12:15:47;96400.06;;;13.03;96.32
5872;BME280;2962;51.312;7.378;2024-03-25T12:18:14;96400.84;;;11.86;97.12
5872;BME280;2962;51.312;7.378;2024-03-25T12:20:39;96402.41;;;11.84;100.00
5872;BME280;2962;51.312;7.378;2024-03-25T12:23:05;96403.41;;;11.48;100.00
5872;BME280;2962;51.312;7.378;2024-03-25T12:25:30;96394.94;;;11.32;100.00
5872;BME280;2962;51.312;7.378;2024-03-25T12:27:56;96396.38;;;11.51;100.00
5872;BME280;2962;51.312;7.378;2024-03-25T12:30:22;96392.97;;;11.95;97.04
5872;BME280;2962;51.312;7.378;2024-03-25T12:32:48;96390.97;;;12.41;91.14
5872;BME280;2962;51.312;7.378;2024-03-25T12:35:17;96377.16;;;12.17;100.00
5872;BME280;2962;51.312;7.378;2024-03-25T12:37:47;96369.44;;;13.15;93.64
5872;BME280;2962;51.312;7.378;2024-03-25T12:40:25;96376.13;;;12.80;92.46
5872;BME280;2962;51.312;7.378;2024-03-25T12:42:54;96373.56;;;11.79;95.14
5872;BME280;2962;51.312;7.378;2024-03-25T12:45:20;96365.09;;;11.66;100.00
5872;BME280;2962;51.312;7.378;2024-03-25T12:47:46;96364.59;;;11.79;100.00
5872;BME280;2962;51.312;7.378;2024-03-25T12:50:11;96349.31;;;12.67;92.21
5872;BME280;2962;51.312;7.378;2024-03-25T12:52:37;96363.69;;;14.57;71.37
5872;BME280;2962;51.312;7.378;2024-03-25T12:55:02;96347.94;;;13.95;67.33
5872;BME280;2962;51.312;7.378;2024-03-25T12:57:28;96357.44;;;12.75;75.81
5872;BME280;2962;51.312;7.378;2024-03-25T12:59:54;96353.63;;;12.68;77.30
5872;BME280;2962;51.312;7.378;2024-03-25T13:02:19;96347.47;;;14.00;77.36
5872;BME280;2962;51.312;7.378;2024-03-25T13:04:44;96357.38;;;12.48;86.36
5872;BME280;2962;51.312;7.378;2024-03-25T13:07:10;96339.34;;;12.16;94.89
5872;BME280;2962;51.312;7.378;2024-03-25T13:09:35;96338.06;;;13.54;82.07
5872;BME280;2962;51.312;7.378;2024-03-25T13:12:01;96346.22;;;15.07;73.92
5872;BME280;2962;51.312;7.378;2024-03-25T13:14:26;96349.63;;;16.00;59.77